TAF Text Data
IDs:
Format:
Raw Decoded Include METAR

Data at: 0309 UTC 23 Sep 2018

KGCN 230254Z 00000KT 10SM CLR 13/00 A3024 RMK AO2 SLP166 T01330000 56001

KGCN 222320Z 2300/2324 25010G18KT P6SM SCT090
  FM230100 VRB03KT P6SM SKC
  FM231900 20008G18KT P6SM SCT080